Time;durP1;ratioP1;P1;durP2;ratioP2;P2;SDS_P1;SDS_P2;PMS_P1;PMS_P2;Temp;Humidity;BMP_temperature;BMP_pressure;BME280_temperature;BME280_humidity;BME280_pressure;Samples;Min_cycle;Max_cycle;Signal;HPM_P1;HPM_P2
2022/01/18 00:01:27;;;;;;;6.75;1.45;;;16.40;51.20;;;;;;5110699;28;20054;-65
2022/01/18 00:03:52;;;;;;;7.80;1.88;;;16.40;51.20;;;;;;5110606;28;20513;-65
2022/01/18 00:06:18;;;;;;;7.18;1.50;;;16.40;51.30;;;;;;5112110;28;20039;-68
2022/01/18 00:08:44;;;;;;;7.43;1.65;;;16.40;51.30;;;;;;5114607;28;20087;-65
2022/01/18 00:11:10;;;;;;;7.25;1.77;;;16.40;52.10;;;;;;5114231;28;20123;-65
2022/01/18 00:16:27;;;;;;;7.50;1.50;;;16.40;51.40;;;;;;5130223;27;20997;-65
2022/01/18 00:18:53;;;;;;;8.13;2.03;;;16.40;51.50;;;;;;5129287;28;20047;-65
2022/01/18 00:24:08;;;;;;;8.55;1.58;;;16.30;51.40;;;;;;5130407;27;20354;-65
2022/01/18 00:26:34;;;;;;;7.22;1.88;;;16.30;51.40;;;;;;5130390;27;20047;-65
2022/01/18 00:29:07;;;;;;;6.28;1.60;;;16.30;51.50;;;;;;5130400;27;20105;-65
2022/01/18 00:31:45;;;;;;;7.72;2.33;;;16.30;51.50;;;;;;5128832;28;20039;-65
2022/01/18 00:34:30;;;;;;;7.25;1.90;;;16.30;51.50;;;;;;5128805;28;20513;-65
2022/01/18 00:37:10;;;;;;;6.07;2.03;;;16.30;51.50;;;;;;5128986;28;20188;-65
2022/01/18 00:39:40;;;;;;;6.68;1.73;;;16.30;51.50;;;;;;5130392;27;20044;-65
2022/01/18 00:42:07;;;;;;;7.95;1.88;;;16.20;51.60;;;;;;5128618;28;20047;-65
2022/01/18 00:44:32;;;;;;;7.03;2.10;;;16.20;51.60;;;;;;5129918;27;20035;-65
2022/01/18 00:46:58;;;;;;;10.35;2.28;;;16.20;51.60;;;;;;5129774;28;20035;-65
2022/01/18 00:49:24;;;;;;;6.07;1.38;;;16.30;51.70;;;;;;5128702;28;20031;-65
2022/01/18 00:51:55;;;;;;;7.70;1.52;;;16.20;51.70;;;;;;5128350;28;20465;-65
2022/01/18 00:54:24;;;;;;;7.07;2.10;;;16.20;51.70;;;;;;5129715;27;20043;-65
2022/01/18 00:56:52;;;;;;;6.65;1.65;;;16.20;51.70;;;;;;5128351;28;20047;-65
2022/01/18 00:59:19;;;;;;;6.60;1.50;;;16.20;51.70;;;;;;5128273;28;20045;-65
2022/01/18 01:01:44;;;;;;;7.80;1.92;;;16.20;51.70;;;;;;5129633;27;20176;-65
2022/01/18 01:04:10;;;;;;;7.43;2.20;;;16.20;51.80;;;;;;5128726;28;20118;-65
2022/01/18 01:06:39;;;;;;;6.72;1.63;;;16.20;51.80;;;;;;5128407;28;20501;-65
2022/01/18 01:09:06;;;;;;;7.47;1.92;;;16.20;51.80;;;;;;5128456;28;20430;-65
2022/01/18 01:11:37;;;;;;;6.32;1.42;;;16.10;51.80;;;;;;5128079;28;20040;-65
2022/01/18 01:14:03;;;;;;;7.53;1.77;;;16.10;51.80;;;;;;5127829;28;20490;-65
2022/01/18 01:19:45;;;;;;;6.55;1.67;;;16.10;52.50;;;;;;5089911;27;20417;-66
2022/01/18 01:33:35;;;;;;;10.73;1.88;;;16.00;51.90;;;;;;5087912;28;20058;-64
2022/01/18 01:36:10;;;;;;;7.35;1.95;;;16.00;51.90;;;;;;5087768;28;20052;-66
2022/01/18 01:44:20;;;;;;;8.20;1.60;;;16.00;52.00;;;;;;5088847;28;20082;-65
2022/01/18 01:46:46;;;;;;;7.47;1.77;;;16.00;52.00;;;;;;5087919;28;20072;-65
2022/01/18 01:49:14;;;;;;;7.22;1.60;;;16.00;52.00;;;;;;5087581;28;20513;-65
2022/01/18 01:51:42;;;;;;;9.25;2.35;;;16.00;52.10;;;;;;5087827;28;20040;-65
2022/01/18 01:54:10;;;;;;;6.40;1.42;;;16.00;52.10;;;;;;5088790;28;20430;-65
2022/01/18 01:56:37;;;;;;;9.07;1.98;;;16.00;52.10;;;;;;5088840;28;20036;-65
2022/01/18 01:59:04;;;;;;;9.75;2.30;;;16.00;52.10;;;;;;5087486;28;20079;-66
2022/01/18 02:01:30;;;;;;;7.18;1.73;;;16.00;52.10;;;;;;5088696;28;20028;-65
2022/01/18 02:03:57;;;;;;;6.95;1.70;;;15.90;52.10;;;;;;5088580;28;20549;-65
2022/01/18 02:06:26;;;;;;;7.55;2.05;;;15.90;52.10;;;;;;5088541;28;20391;-65
2022/01/18 02:08:52;;;;;;;5.80;1.30;;;16.00;52.20;;;;;;5087098;28;20048;-64
2022/01/18 02:11:17;;;;;;;7.18;1.60;;;16.00;52.20;;;;;;5087215;28;20105;-68
2022/01/18 02:13:49;;;;;;;5.05;1.10;;;16.00;52.20;;;;;;5088241;28;20072;-65
2022/01/18 02:21:50;;;;;;;5.22;1.15;;;16.50;51.40;;;;;;5100338;28;20060;-65
2022/01/18 02:24:20;;;;;;;6.97;1.60;;;16.80;50.80;;;;;;5066578;28;20506;-65
2022/01/18 02:26:47;;;;;;;5.72;1.38;;;17.10;50.30;;;;;;5100818;28;20508;-65
2022/01/18 02:29:13;;;;;;;5.53;1.42;;;17.50;49.70;;;;;;5061611;28;20081;-65
2022/01/18 02:31:40;;;;;;;7.22;1.42;;;17.80;49.30;;;;;;5087089;28;20072;-65
2022/01/18 02:34:09;;;;;;;7.03;1.63;;;18.00;48.70;;;;;;5054748;28;20041;-65
2022/01/18 02:36:36;;;;;;;7.70;1.70;;;18.30;48.30;;;;;;5053167;28;20408;-65
2022/01/18 02:39:03;;;;;;;5.28;1.30;;;18.50;47.90;;;;;;5054474;28;20348;-65
2022/01/18 02:41:32;;;;;;;7.53;2.03;;;18.60;47.40;;;;;;5053106;28;20081;-65
2022/01/18 02:44:00;;;;;;;5.90;1.20;;;18.70;47.20;;;;;;5086892;28;20080;-65
2022/01/18 02:46:27;;;;;;;6.03;1.35;;;18.80;47.00;;;;;;5054704;28;20442;-65
2022/01/18 02:48:55;;;;;;;7.00;1.67;;;18.80;46.90;;;;;;5053194;28;20052;-67
2022/01/18 02:51:21;;;;;;;6.15;1.63;;;18.80;46.80;;;;;;5053230;28;20071;-65
2022/01/18 02:54:08;;;;;;;6.97;1.60;;;18.80;46.80;;;;;;5053219;28;20412;-65
2022/01/18 02:56:42;;;;;;;4.90;1.33;;;18.80;46.80;;;;;;5054007;28;20048;-65
2022/01/18 02:59:17;;;;;;;5.43;1.17;;;18.70;46.80;;;;;;5086261;28;20049;-69
2022/01/18 03:04:38;;;;;;;4.45;0.82;;;18.60;46.90;;;;;;5086368;28;20057;-65
2022/01/18 03:07:04;;;;;;;5.70;1.08;;;18.50;47.00;;;;;;5053826;28;20049;-65
2022/01/18 03:09:32;;;;;;;5.05;1.23;;;18.50;47.00;;;;;;5086474;28;20109;-65
2022/01/18 03:11:58;;;;;;;5.93;1.10;;;18.40;47.20;;;;;;5052782;28;20057;-65
2022/01/18 03:14:23;;;;;;;5.88;1.08;;;18.30;47.30;;;;;;5057816;28;20609;-65
2022/01/18 03:16:50;;;;;;;5.60;1.75;;;18.30;47.40;;;;;;5073405;28;20059;-64
2022/01/18 03:19:16;;;;;;;7.53;1.55;;;18.10;47.40;;;;;;5072381;28;20492;-65
2022/01/18 03:21:41;;;;;;;5.97;1.60;;;18.00;47.60;;;;;;5072659;28;20043;-65
2022/01/18 03:24:15;;;;;;;5.22;1.10;;;18.00;47.70;;;;;;5072663;28;20033;-65
2022/01/18 03:29:27;;;;;;;6.00;1.10;;;17.80;48.00;;;;;;5073376;28;20118;-65
2022/01/18 03:31:53;;;;;;;4.35;1.20;;;17.70;48.10;;;;;;5073585;28;20450;-64
2022/01/18 03:34:19;;;;;;;5.78;1.42;;;17.70;48.30;;;;;;5073752;28;20044;-65
2022/01/18 03:36:45;;;;;;;4.70;1.30;;;17.70;48.40;;;;;;5073183;28;20060;-65
2022/01/18 03:39:11;;;;;;;6.82;1.27;;;17.60;48.40;;;;;;5073337;28;20518;-65
2022/01/18 03:41:36;;;;;;;4.65;1.20;;;17.60;48.50;;;;;;5072437;28;20036;-64
2022/01/18 03:44:02;;;;;;;5.22;0.98;;;17.60;48.50;;;;;;5072249;28;20214;-65
2022/01/18 03:46:28;;;;;;;4.38;1.33;;;17.60;48.50;;;;;;5071945;28;20041;-65
2022/01/18 03:48:54;;;;;;;5.47;1.17;;;17.60;48.50;;;;;;5073107;28;20059;-65
2022/01/18 03:51:20;;;;;;;5.63;1.35;;;17.60;48.40;;;;;;5071870;28;20056;-65
2022/01/18 03:53:51;;;;;;;4.93;1.35;;;17.70;48.40;;;;;;5072939;28;20033;-65
2022/01/18 03:56:17;;;;;;;4.70;1.00;;;17.70;48.40;;;;;;5073247;28;20032;-65
2022/01/18 03:58:42;;;;;;;4.30;1.13;;;17.70;48.30;;;;;;5072889;28;20041;-65
2022/01/18 04:01:08;;;;;;;6.00;1.20;;;17.80;48.30;;;;;;5071829;28;20124;-66
2022/01/18 04:03:34;;;;;;;3.75;0.77;;;17.80;48.20;;;;;;5071541;28;20069;-65
2022/01/18 04:05:59;;;;;;;5.05;1.13;;;17.80;48.10;;;;;;5072815;28;20123;-65
2022/01/18 04:08:25;;;;;;;4.90;0.93;;;17.80;48.10;;;;;;5071446;28;20074;-65
2022/01/18 04:10:51;;;;;;;5.30;1.02;;;17.80;48.10;;;;;;5071680;28;20044;-65
2022/01/18 04:13:17;;;;;;;4.72;0.90;;;17.80;48.10;;;;;;5071780;28;20046;-66
2022/01/18 04:15:42;;;;;;;6.07;1.45;;;17.80;48.10;;;;;;5072711;28;20479;-65
2022/01/18 04:18:48;;;;;;;5.47;1.13;;;17.80;48.10;;;;;;5070925;28;20098;-66
2022/01/18 04:29:11;;;;;;;3.45;1.27;;;17.60;48.20;;;;;;5130285;27;20682;-68
2022/01/18 04:31:37;;;;;;;3.58;0.60;;;17.60;48.40;;;;;;5130245;27;20060;-65
2022/01/18 04:34:03;;;;;;;5.75;1.30;;;17.60;48.40;;;;;;5128829;28;20502;-65
2022/01/18 04:36:29;;;;;;;4.90;1.20;;;17.60;48.40;;;;;;5128918;28;20054;-69
2022/01/18 04:38:55;;;;;;;4.18;0.80;;;17.60;48.50;;;;;;5129112;28;20043;-65
2022/01/18 04:41:27;;;;;;;4.57;1.00;;;17.50;48.50;;;;;;5129092;28;20039;-65
2022/01/18 04:49:26;;;;;;;5.07;1.05;;;17.40;48.70;;;;;;5087858;28;20051;-65
2022/01/18 04:51:54;;;;;;;4.75;0.95;;;17.40;48.70;;;;;;5088108;28;20036;-66
2022/01/18 04:54:22;;;;;;;4.70;1.20;;;17.40;48.80;;;;;;5087982;28;20040;-65
2022/01/18 04:59:28;;;;;;;3.85;0.85;;;17.30;48.80;;;;;;5130257;27;20358;-69
2022/01/18 05:01:55;;;;;;;4.05;1.85;;;17.30;48.80;;;;;;5130427;28;20108;-68
2022/01/18 05:04:20;;;;;;;3.92;0.70;;;17.30;48.90;;;;;;5129283;28;20053;-68
2022/01/18 05:06:46;;;;;;;4.10;1.02;;;17.30;48.90;;;;;;5128976;28;20467;-66
2022/01/18 05:09:12;;;;;;;5.47;1.02;;;17.30;48.90;;;;;;5129090;28;20055;-68
2022/01/18 05:11:51;;;;;;;5.15;0.80;;;17.30;49.00;;;;;;5128731;28;20471;-66
2022/01/18 05:14:35;;;;;;;4.80;1.10;;;17.30;48.90;;;;;;5130029;27;20043;-65
2022/01/18 05:17:09;;;;;;;3.42;0.60;;;17.30;48.90;;;;;;5128821;27;20050;-68
2022/01/18 05:19:55;;;;;;;5.70;1.23;;;17.30;48.90;;;;;;5129986;27;20386;-69
2022/01/18 05:25:06;;;;;;;5.90;0.95;;;17.40;48.90;;;;;;5128312;28;20043;-66
2022/01/18 05:27:32;;;;;;;6.15;1.33;;;17.40;48.90;;;;;;5128837;28;20126;-65
2022/01/18 05:29:57;;;;;;;4.65;1.05;;;17.40;48.80;;;;;;5128519;28;20047;-65
2022/01/18 05:32:23;;;;;;;4.40;1.38;;;17.40;48.80;;;;;;5129597;28;20031;-65
2022/01/18 05:34:49;;;;;;;5.75;0.98;;;17.40;48.80;;;;;;5129857;28;20534;-69
2022/01/18 05:37:16;;;;;;;3.85;0.90;;;17.40;48.70;;;;;;5129605;28;20031;-68
2022/01/18 05:39:41;;;;;;;4.28;0.98;;;17.40;48.70;;;;;;5129712;27;20394;-68
2022/01/18 05:42:07;;;;;;;3.97;1.00;;;17.40;48.70;;;;;;5128504;28;20043;-68
2022/01/18 05:44:33;;;;;;;5.05;0.77;;;17.40;48.70;;;;;;5128275;28;20043;-65
2022/01/18 05:46:58;;;;;;;6.82;1.10;;;17.40;48.70;;;;;;5128300;28;20074;-67
2022/01/18 05:49:24;;;;;;;4.40;0.90;;;17.40;48.60;;;;;;5128329;27;20062;-68
2022/01/18 05:51:50;;;;;;;3.58;1.02;;;17.40;48.70;;;;;;5127966;27;20570;-66
2022/01/18 05:54:15;;;;;;;3.60;0.80;;;17.40;48.60;;;;;;5128014;28;20031;-67
2022/01/18 05:56:41;;;;;;;3.97;0.82;;;17.40;48.60;;;;;;5127882;28;20047;-68
2022/01/18 05:59:09;;;;;;;4.05;1.02;;;17.40;48.60;;;;;;5127584;28;20142;-65
2022/01/18 06:01:38;;;;;;;6.35;1.20;;;17.40;48.60;;;;;;5127946;28;20047;-68
2022/01/18 06:04:12;;;;;;;5.83;1.67;;;17.40;48.60;;;;;;5127900;28;20483;-68
2022/01/18 06:07:09;;;;;;;5.28;0.73;;;17.40;48.60;;;;;;5127701;28;20308;-68
2022/01/18 06:09:23;;;;;;;3.83;0.80;;;17.40;48.60;;;;;;5121905;28;20515;-68
2022/01/18 06:11:50;;;;;;;5.30;1.15;;;17.30;48.60;;;;;;5113969;28;20054;-68
2022/01/18 06:14:19;;;;;;;4.30;1.05;;;17.40;48.70;;;;;;5115182;28;20043;-68
2022/01/18 06:16:44;;;;;;;4.35;1.33;;;17.30;48.60;;;;;;5114053;28;20044;-66
2022/01/18 06:19:11;;;;;;;3.55;0.60;;;17.30;48.60;;;;;;5113811;28;20513;-67
2022/01/18 06:21:37;;;;;;;4.05;0.70;;;17.30;48.70;;;;;;5115132;28;20071;-66
2022/01/18 06:24:03;;;;;;;4.57;0.88;;;17.30;48.70;;;;;;5113829;28;20046;-68
2022/01/18 06:26:32;;;;;;;3.25;0.70;;;17.30;48.80;;;;;;5113974;28;20387;-68
2022/01/18 06:28:58;;;;;;;5.72;0.73;;;17.30;48.80;;;;;;5113475;28;20083;-66
2022/01/18 06:31:24;;;;;;;5.07;0.95;;;17.30;48.80;;;;;;5112078;28;20050;-72
2022/01/18 06:33:49;;;;;;;4.40;0.80;;;17.20;48.90;;;;;;5111725;28;20422;-71
2022/01/18 06:36:15;;;;;;;3.45;0.77;;;17.20;49.20;;;;;;5091770;28;20055;-69
2022/01/18 06:38:41;;;;;;;4.50;0.65;;;17.20;49.60;;;;;;5112157;28;20503;-74
2022/01/18 06:41:06;;;;;;;6.10;0.75;;;17.30;50.00;;;;;;5111434;28;20039;-79
2022/01/18 06:43:32;;;;;;;6.38;1.33;;;17.30;50.20;;;;;;5109468;28;20131;-68
2022/01/18 06:45:58;;;;;;;7.45;0.88;;;17.30;50.50;;;;;;5110822;28;20038;-73
2022/01/18 06:48:27;;;;;;;4.80;0.82;;;17.30;50.70;;;;;;5110688;28;20116;-74
2022/01/18 06:50:53;;;;;;;5.72;0.52;;;17.30;50.80;;;;;;5110041;28;20050;-74
2022/01/18 06:53:18;;;;;;;4.88;0.70;;;17.30;50.60;;;;;;5108759;28;20122;-74
2022/01/18 06:55:50;;;;;;;5.20;1.05;;;17.30;50.50;;;;;;5109823;28;20092;-73
2022/01/18 06:58:16;;;;;;;3.42;0.63;;;17.40;50.40;;;;;;5109445;28;20384;-73
2022/01/18 07:00:44;;;;;;;3.65;0.63;;;17.40;50.30;;;;;;5109732;28;20065;-73
2022/01/18 07:03:10;;;;;;;5.38;1.25;;;17.50;51.10;;;;;;5111569;28;20226;-73
2022/01/18 07:05:37;;;;;;;5.35;0.70;;;17.40;50.40;;;;;;5103939;28;20071;-73
2022/01/18 07:08:03;;;;;;;5.38;0.68;;;17.40;50.50;;;;;;5105142;28;20040;-69
2022/01/18 07:10:31;;;;;;;4.45;0.57;;;17.40;50.60;;;;;;5105181;28;20101;-67
2022/01/18 07:12:58;;;;;;;5.43;0.88;;;17.40;50.70;;;;;;5106623;28;20050;-70
2022/01/18 07:15:23;;;;;;;5.43;0.75;;;17.40;51.00;;;;;;5106136;28;20439;-68
2022/01/18 07:17:52;;;;;;;4.15;0.50;;;17.40;51.20;;;;;;5108170;28;20046;-65
2022/01/18 07:20:18;;;;;;;5.13;0.77;;;17.40;51.60;;;;;;5094489;27;20084;-64
2022/01/18 07:22:43;;;;;;;6.40;0.88;;;17.40;51.50;;;;;;5093165;28;20582;-65
2022/01/18 07:25:17;;;;;;;8.95;0.63;;;17.40;51.40;;;;;;5084511;28;20036;-64
2022/01/18 07:27:43;;;;;;;4.10;0.90;;;17.40;51.10;;;;;;5081636;28;20437;-67
2022/01/18 07:30:10;;;;;;;5.30;1.27;;;17.30;50.80;;;;;;5104055;27;20051;-68
2022/01/18 07:32:36;;;;;;;9.10;1.40;;;17.30;50.30;;;;;;5089231;28;20647;-67
2022/01/18 07:35:03;;;;;;;8.05;1.38;;;17.30;49.90;;;;;;5091475;28;20047;-66
2022/01/18 07:37:34;;;;;;;7.10;1.65;;;17.30;49.70;;;;;;5105274;27;20048;-67
2022/01/18 07:40:01;;;;;;;10.07;0.93;;;17.40;49.60;;;;;;5091044;28;20056;-66
2022/01/18 07:42:26;;;;;;;5.65;1.20;;;17.40;49.70;;;;;;5103743;27;20042;-65
2022/01/18 07:44:52;;;;;;;5.38;1.45;;;17.40;49.60;;;;;;5092932;28;20115;-65
2022/01/18 07:47:18;;;;;;;11.80;1.85;;;17.40;49.50;;;;;;5089189;27;20348;-66
2022/01/18 07:49:45;;;;;;;6.75;1.27;;;17.50;49.50;;;;;;5092108;27;20497;-64
2022/01/18 07:52:11;;;;;;;6.68;0.63;;;17.60;49.60;;;;;;5096859;28;20138;-65
2022/01/18 07:54:42;;;;;;;7.55;1.00;;;17.80;49.60;;;;;;5093182;28;20158;-68
2022/01/18 07:57:08;;;;;;;4.40;1.05;;;17.90;49.60;;;;;;5084447;27;20028;-67
2022/01/18 07:59:34;;;;;;;7.57;1.00;;;18.20;49.20;;;;;;5089278;27;20051;-72
2022/01/18 08:02:00;;;;;;;6.93;1.13;;;18.30;48.80;;;;;;5096761;28;20142;-71
2022/01/18 08:04:25;;;;;;;3.70;0.70;;;18.30;48.30;;;;;;5090202;28;20390;-67
2022/01/18 08:06:51;;;;;;;5.45;0.82;;;18.40;48.40;;;;;;5090261;27;20050;-68
2022/01/18 08:09:19;;;;;;;4.45;0.82;;;18.40;48.50;;;;;;5093320;28;20567;-69
2022/01/18 08:11:46;;;;;;;4.45;1.00;;;18.40;48.60;;;;;;5089791;28;20058;-69
2022/01/18 08:14:13;;;;;;;7.15;0.80;;;18.40;48.60;;;;;;5091455;28;20040;-66
2022/01/18 08:16:59;;;;;;;7.53;0.80;;;18.40;48.80;;;;;;5088399;28;20043;-70
2022/01/18 08:19:27;;;;;;;4.28;1.25;;;18.40;48.90;;;;;;5088886;28;20043;-67
2022/01/18 08:21:53;;;;;;;4.88;0.63;;;18.40;49.10;;;;;;5090130;28;20044;-66
2022/01/18 08:24:19;;;;;;;8.93;1.17;;;18.30;49.30;;;;;;5087197;28;20409;-69
2022/01/18 08:26:44;;;;;;;4.45;0.70;;;18.30;49.80;;;;;;5089448;28;20031;-69
2022/01/18 08:29:12;;;;;;;1.80;0.47;;;18.30;50.00;;;;;;5090221;28;20059;-69
2022/01/18 08:31:38;;;;;;;6.15;0.77;;;18.20;50.60;;;;;;5088880;28;20054;-65
2022/01/18 08:34:03;;;;;;;3.55;0.47;;;18.10;51.20;;;;;;5091805;28;20057;-66
2022/01/18 08:36:29;;;;;;;3.97;0.55;;;18.10;51.40;;;;;;5083674;28;20044;-75
2022/01/18 08:38:55;;;;;;;4.30;1.15;;;18.10;51.80;;;;;;5088507;28;20653;-66
2022/01/18 08:41:21;;;;;;;5.60;0.60;;;18.10;52.20;;;;;;5093180;28;20044;-69
2022/01/18 08:43:47;;;;;;;6.97;0.40;;;18.00;52.40;;;;;;5094037;28;20110;-67
2022/01/18 08:46:13;;;;;;;6.07;0.45;;;18.00;52.80;;;;;;5090572;28;20086;-67
2022/01/18 08:48:39;;;;;;;4.75;0.65;;;18.00;53.10;;;;;;5091130;27;20121;-67
2022/01/18 08:51:05;;;;;;;5.78;0.70;;;17.90;53.30;;;;;;5099702;28;20164;-68
2022/01/18 08:53:31;;;;;;;5.85;0.50;;;17.90;53.70;;;;;;5089472;28;20048;-68
2022/01/18 08:55:56;;;;;;;4.82;0.55;;;17.90;53.90;;;;;;5105793;28;20032;-70
2022/01/18 08:58:22;;;;;;;7.03;0.43;;;17.90;54.10;;;;;;5089481;28;20040;-67
2022/01/18 09:00:48;;;;;;;7.72;0.70;;;17.80;53.90;;;;;;5088178;28;20036;-66
2022/01/18 09:03:14;;;;;;;5.93;0.57;;;17.80;54.10;;;;;;5084698;28;20070;-67
2022/01/18 09:05:40;;;;;;;8.10;1.60;;;17.80;54.50;;;;;;5105155;28;20245;-66
2022/01/18 09:08:07;;;;;;;4.65;0.30;;;17.80;54.90;;;;;;5099424;28;20051;-68
2022/01/18 09:10:34;;;;;;;3.42;0.57;;;17.80;55.00;;;;;;5086412;28;20050;-69
2022/01/18 09:12:59;;;;;;;6.28;0.70;;;17.80;55.20;;;;;;5087100;28;20047;-69
2022/01/18 09:15:26;;;;;;;7.97;0.80;;;17.80;55.40;;;;;;5089363;28;20278;-68
2022/01/18 09:17:55;;;;;;;8.52;0.98;;;17.80;55.60;;;;;;5092493;28;20107;-68
2022/01/18 09:20:23;;;;;;;9.32;0.70;;;17.80;55.40;;;;;;5096308;28;20134;-67
2022/01/18 09:22:48;;;;;;;9.23;1.45;;;17.80;55.40;;;;;;5091708;28;20037;-73
2022/01/18 09:25:22;;;;;;;8.55;2.10;;;17.80;54.90;;;;;;5088089;28;20040;-73
2022/01/18 09:27:49;;;;;;;7.10;2.67;;;17.90;53.60;;;;;;5090766;28;20050;-67
2022/01/18 09:30:15;;;;;;;6.72;2.60;;;17.80;52.10;;;;;;5084043;28;20117;-67
2022/01/18 09:32:43;;;;;;;7.28;2.45;;;17.80;51.10;;;;;;5086427;28;20039;-67
2022/01/18 09:35:09;;;;;;;11.57;2.10;;;17.80;50.40;;;;;;5094352;28;20066;-67
2022/01/18 09:37:35;;;;;;;6.57;1.88;;;17.80;50.50;;;;;;5088420;28;20542;-69
2022/01/18 09:40:02;;;;;;;7.18;1.48;;;17.90;50.90;;;;;;5089902;28;20054;-69
2022/01/18 09:42:34;;;;;;;9.38;2.60;;;17.90;51.30;;;;;;5090352;28;20468;-67
2022/01/18 09:45:04;;;;;;;9.10;2.00;;;18.00;51.50;;;;;;5093033;28;20046;-69
2022/01/18 09:47:34;;;;;;;6.17;1.10;;;18.10;51.10;;;;;;5094776;28;20070;-70
2022/01/18 09:50:00;;;;;;;8.65;1.45;;;18.20;51.20;;;;;;5091901;27;20051;-65
2022/01/18 09:52:26;;;;;;;7.95;1.35;;;18.30;51.20;;;;;;5094083;28;20043;-72
2022/01/18 09:54:52;;;;;;;9.07;1.45;;;18.40;51.40;;;;;;5093322;27;20491;-67
2022/01/18 09:57:20;;;;;;;8.05;1.33;;;18.50;51.40;;;;;;5091475;28;20043;-66
2022/01/18 09:59:46;;;;;;;10.48;1.42;;;18.50;51.40;;;;;;5107255;27;20044;-70
2022/01/18 10:02:12;;;;;;;5.22;1.08;;;18.50;51.50;;;;;;5093662;27;20036;-71
2022/01/18 10:04:43;;;;;;;8.70;1.20;;;18.50;51.50;;;;;;5095352;28;20024;-72
2022/01/18 10:07:10;;;;;;;7.72;1.30;;;18.50;51.10;;;;;;5096095;28;20028;-75
2022/01/18 10:09:36;;;;;;;6.90;1.17;;;18.50;51.00;;;;;;5110158;27;20480;-69
2022/01/18 10:15:02;;;;;;;3.55;1.00;;;18.40;51.10;;;;;;5109750;27;20485;-73
2022/01/18 10:17:40;;;;;;;4.35;1.30;;;18.30;51.30;;;;;;5106723;27;20048;-70
2022/01/18 10:20:09;;;;;;;3.45;0.70;;;18.30;51.30;;;;;;5103940;27;20224;-70
2022/01/18 10:22:42;;;;;;;5.63;1.20;;;18.30;51.50;;;;;;5118465;27;20590;-68
2022/01/18 10:27:55;;;;;;;5.65;0.88;;;18.20;52.40;;;;;;5096920;27;1158653;-71
2022/01/18 10:30:33;;;;;;;5.05;0.57;;;18.20;52.60;;;;;;5116630;27;20047;-69
2022/01/18 10:38:45;;;;;;;4.28;0.60;;;18.20;54.00;;;;;;5096314;27;20402;-72
2022/01/18 10:41:32;;;;;;;3.63;1.23;;;18.20;53.60;;;;;;5092453;28;20078;-71
2022/01/18 10:44:12;;;;;;;3.83;0.50;;;18.20;53.90;;;;;;5093627;28;21354;-70
2022/01/18 10:46:44;;;;;;;4.18;0.73;;;18.20;54.10;;;;;;5092950;28;20122;-70
2022/01/18 10:49:11;;;;;;;3.42;0.40;;;18.20;54.10;;;;;;5108626;28;20544;-67
2022/01/18 10:51:42;;;;;;;2.80;0.63;;;18.20;54.30;;;;;;5090303;28;20048;-72
2022/01/18 10:54:10;;;;;;;2.58;0.38;;;18.20;54.40;;;;;;5096822;28;20564;-72
2022/01/18 10:59:22;;;;;;;3.95;0.60;;;18.20;54.30;;;;;;5101058;27;20419;-71
2022/01/18 11:02:12;;;;;;;4.63;0.30;;;18.20;54.20;;;;;;5111651;27;20044;-70
2022/01/18 11:04:39;;;;;;;2.43;0.30;;;18.20;55.20;;;;;;5096476;28;20294;-70
2022/01/18 11:07:06;;;;;;;3.33;0.65;;;18.30;54.70;;;;;;5094873;28;20052;-68
2022/01/18 11:09:32;;;;;;;4.90;0.55;;;18.30;54.50;;;;;;5094461;28;20530;-67
2022/01/18 11:11:58;;;;;;;3.83;0.52;;;18.30;54.00;;;;;;5096579;28;20040;-69
2022/01/18 11:14:27;;;;;;;7.18;1.15;;;18.30;52.60;;;;;;5111909;27;20047;-67
2022/01/18 11:16:56;;;;;;;3.42;0.85;;;18.20;50.90;;;;;;5095652;28;20040;-69
2022/01/18 11:22:08;;;;;;;4.28;0.98;;;18.30;49.90;;;;;;5119536;27;20369;-70
2022/01/18 11:24:37;;;;;;;1.92;0.60;;;18.30;49.20;;;;;;5090582;28;20134;-69
2022/01/18 11:27:08;;;;;;;2.92;0.47;;;18.40;48.70;;;;;;5093344;28;20051;-69
2022/01/18 11:29:35;;;;;;;5.07;1.25;;;18.50;48.10;;;;;;5092354;28;20067;-73
2022/01/18 11:32:02;;;;;;;4.30;0.45;;;18.70;47.90;;;;;;5098069;28;20097;-70
2022/01/18 11:40:18;;;;;;;6.03;0.98;;;19.10;47.40;;;;;;5067254;27;20419;-72
2022/01/18 11:50:45;;;;;;;4.85;0.65;;;19.30;47.00;;;;;;5097945;27;20451;-72
2022/01/18 11:56:37;;;;;;;2.33;0.50;;;19.40;45.60;;;;;;5087158;27;20372;-72
2022/01/18 11:59:26;;;;;;;3.25;0.90;;;19.30;44.90;;;;;;5061782;28;20052;-72
2022/01/18 12:01:57;;;;;;;4.82;0.52;;;19.20;44.20;;;;;;5063536;28;20251;-72
2022/01/18 12:13:23;;;;;;;7.30;0.70;;;19.20;44.20;;;;;;5102296;27;20404;-67
2022/01/18 12:15:55;;;;;;;4.28;0.20;;;18.80;45.90;;;;;;5099247;28;20044;-71
2022/01/18 12:18:24;;;;;;;4.93;0.65;;;18.80;46.20;;;;;;5098761;28;20044;-67
2022/01/18 12:20:56;;;;;;;5.90;0.52;;;18.70;46.50;;;;;;5091404;28;20119;-72
2022/01/18 12:23:34;;;;;;;4.95;0.90;;;18.70;46.60;;;;;;5088066;28;20044;-67
2022/01/18 12:26:10;;;;;;;5.05;0.40;;;18.70;46.90;;;;;;5111374;28;20681;-67
2022/01/18 12:48:02;;;;;;;4.47;0.40;;;18.60;47.90;;;;;;5054335;27;20462;-67
2022/01/18 12:53:11;;;;;;;6.85;0.38;;;18.40;50.30;;;;;;5106667;27;20444;-68
2022/01/18 12:58:20;;;;;;;3.55;0.40;;;18.40;50.70;;;;;;5095498;27;20950;-67
2022/01/18 13:03:35;;;;;;;4.80;0.40;;;18.30;51.30;;;;;;5111354;27;20382;-66
2022/01/18 13:06:04;;;;;;;6.30;0.30;;;18.30;51.50;;;;;;5110053;27;20070;-68
2022/01/18 13:11:30;;;;;;;2.95;0.20;;;18.30;51.50;;;;;;5066024;28;20473;-67
2022/01/18 13:14:02;;;;;;;3.42;0.60;;;18.20;51.80;;;;;;5055708;28;20051;-68
2022/01/18 13:27:36;;;;;;;3.90;0.32;;;18.20;52.60;;;;;;5068650;27;20468;-68
2022/01/18 13:30:12;;;;;;;6.57;0.40;;;18.20;52.60;;;;;;5030032;28;20049;-70
2022/01/18 13:32:38;;;;;;;2.58;0.52;;;18.20;52.60;;;;;;5048618;28;20033;-65
2022/01/18 13:35:05;;;;;;;8.27;1.10;;;18.20;52.90;;;;;;5050242;28;20071;-66
2022/01/18 13:37:34;;;;;;;7.07;0.57;;;18.20;52.80;;;;;;5032639;28;20068;-66
2022/01/18 13:40:03;;;;;;;7.18;0.95;;;18.20;52.60;;;;;;5049309;28;20184;-65
2022/01/18 13:53:27;;;;;;;5.85;0.60;;;18.20;52.80;;;;;;5158006;27;20463;-67
2022/01/18 13:58:36;;;;;;;2.72;0.40;;;18.30;53.00;;;;;;5055217;27;21079;-67
2022/01/18 14:03:51;;;;;;;3.00;0.47;;;18.20;53.00;;;;;;5086956;27;20476;-66
2022/01/18 14:06:18;;;;;;;3.95;0.68;;;18.20;53.50;;;;;;5083116;28;20056;-66
2022/01/18 14:11:32;;;;;;;4.20;0.73;;;18.20;53.90;;;;;;5064127;28;20421;-66
2022/01/18 14:13:59;;;;;;;3.03;0.43;;;18.20;53.70;;;;;;5058520;28;20111;-67
2022/01/18 14:16:34;;;;;;;9.05;1.85;;;18.10;53.20;;;;;;5049829;28;20124;-68
2022/01/18 14:19:09;;;;;;;2.47;0.70;;;18.10;52.30;;;;;;5050915;28;20037;-67
2022/01/18 14:21:43;;;;;;;3.25;0.82;;;18.10;51.30;;;;;;5067012;28;20049;-67
2022/01/18 14:24:31;;;;;;;6.93;1.65;;;18.00;50.70;;;;;;5065375;28;20041;-68
2022/01/18 14:26:58;;;;;;;3.80;1.65;;;18.00;49.70;;;;;;5051760;28;20118;-68
2022/01/18 14:35:26;;;;;;;7.60;1.60;;;17.90;48.30;;;;;;5078889;28;20134;-67
2022/01/18 14:38:10;;;;;;;4.72;1.00;;;18.00;47.60;;;;;;5077756;28;20048;-68
2022/01/18 14:43:27;;;;;;;7.05;1.00;;;18.30;47.80;;;;;;5121651;27;20422;-67
2022/01/18 14:46:02;;;;;;;3.47;1.25;;;18.40;47.50;;;;;;5122031;28;20047;-67
2022/01/18 14:48:32;;;;;;;4.75;1.40;;;18.60;47.00;;;;;;5121984;28;20047;-65
2022/01/18 14:50:58;;;;;;;9.73;1.17;;;18.70;46.60;;;;;;5111461;28;20083;-67
2022/01/18 14:53:25;;;;;;;6.72;1.70;;;18.80;46.40;;;;;;5123012;27;20430;-68
2022/01/18 14:55:54;;;;;;;6.43;1.27;;;18.90;46.10;;;;;;5142197;27;20044;-68
2022/01/18 14:58:26;;;;;;;8.32;1.83;;;18.90;46.00;;;;;;5110805;28;20036;-68
2022/01/18 15:00:53;;;;;;;10.35;1.67;;;18.90;46.10;;;;;;5108567;28;20032;-66
2022/01/18 15:03:19;;;;;;;7.40;1.65;;;18.90;46.40;;;;;;5129676;27;20112;-69
2022/01/18 15:05:45;;;;;;;5.05;1.48;;;19.00;46.40;;;;;;5105459;28;20032;-69
2022/01/18 15:08:13;;;;;;;8.68;1.40;;;19.00;46.40;;;;;;5109083;28;20136;-69
2022/01/18 15:10:41;;;;;;;6.93;1.50;;;18.90;46.50;;;;;;5103776;28;20032;-68
2022/01/18 15:13:07;;;;;;;6.35;1.52;;;19.00;46.70;;;;;;5136138;27;20054;-70
2022/01/18 15:15:34;;;;;;;4.57;1.40;;;18.90;46.80;;;;;;5104044;28;20055;-73
2022/01/18 15:17:59;;;;;;;4.97;2.25;;;18.90;46.40;;;;;;5102355;28;20040;-75
2022/01/18 15:20:26;;;;;;;11.00;2.40;;;18.80;46.20;;;;;;5103618;28;20047;-71
2022/01/18 15:22:55;;;;;;;9.43;3.75;;;18.70;45.90;;;;;;5103964;28;20071;-70
2022/01/18 15:25:23;;;;;;;8.80;3.97;;;18.60;45.80;;;;;;5104312;28;20039;-73
2022/01/18 15:27:49;;;;;;;7.22;4.28;;;18.60;46.00;;;;;;5104723;28;20043;-71
2022/01/18 15:30:16;;;;;;;8.23;3.67;;;18.50;46.40;;;;;;5104972;28;20173;-69
2022/01/18 15:32:43;;;;;;;7.63;3.50;;;18.50;46.70;;;;;;5105654;28;20051;-69
2022/01/18 15:35:12;;;;;;;10.90;4.00;;;18.40;46.90;;;;;;5108582;28;20036;-69
2022/01/18 15:37:38;;;;;;;7.20;4.03;;;18.30;47.30;;;;;;5107568;28;20392;-70
2022/01/18 15:40:07;;;;;;;8.25;4.65;;;18.30;47.30;;;;;;5108625;28;20054;-69